Aérodrome :
LOGIN :

S'inscrire | Disclaimer

   EN    FR    IT 

 










Légende :    VFR   VFR Marginal   IFR   IFR Intensif   IFR Très Intensif
Visi : 
Plafond : 
>= 8 km
>= 3000ft
5 à 8 km
1000 à 3000 ft
1500m à 5 km
500 à 1000 ft
800 à 1500m
200 à 500 ft
< 800m
< 200 ft
Symboles :   Orages  Brouillard  Fortes neiges  Fortes précipitations  Vent > 20 kt
SIGMETs :   Divers  Orages  Givrage  Turbulence  Onde Orograph.  Cendres Volcan.






- Altitude de l'aérodrome : 157 ft
- Code IATA : LIL


LFQQ - Lille Lesquin

DERNIER METAR :
  • 282130Z AUTO 22012KT 9999 FEW028 03/02 Q1001 NOSIG

METARs EXPIRÉS :
  • 282100Z AUTO 23011KT 9999 FEW027 03/02 Q1001 NOSIG
  • 282030Z AUTO 22011KT 9999 FEW019 BKN028 BKN035 04/02 Q1001 NOSIG
  • 282000Z AUTO 21015KT 9999 DZ BKN018/// BKN025/// OVC030/// ///TCU 04/02 Q1000 BECMG NSW SCT030
  • 281930Z AUTO 21013KT 9999 -DZ BKN015 BKN020 BKN029 04/03 Q1000 NOSIG
  • 281900Z AUTO 20016KT 6000 -RA SCT019/// BKN026/// BKN039/// ///TCU 04/02 Q1000 TEMPO 24020G35KT 2000 SHRA BKN008 BKN020CB

TAF TAF LFQQ
Valide du 28 à 18h jusqu'au 30 à 00h UTC


281700Z 2818/2924 24015KT 9999 SCT030
TEMPO 2818/2820 24020G35KT 2000 SHRA BKN020CB
PROB40
TEMPO 2818/2820 TSRA BKN008 BKN020CB
TEMPO 2911/2916 24015G25KT
ATIS : +33 3 20 16 19 54



MET'MAP, la Météo Aéronautique d'un coup d'oeil ! - Copyright ORBIFLY Décembre 2007 - Disclaimer

ORBIFLY MET'MAP TEAM :

Programmation & Développement : Alexandra Zaïnal
Sur une idée originale de : Baudouin d'Aumeries
Assistance à la programmation : Marc-Olivier Méhu
Soutien technique & logistique : Manuel Goepfert

Contact : metmap@orbifly.com




SOURCES & CREDITS :

   NOAA